createdAt,value
2022-08-09T00:01:20.986Z,10.82
2022-08-09T00:04:24.983Z,10.80
2022-08-09T00:07:21.852Z,11.43
2022-08-09T00:10:21.044Z,10.57
2022-08-09T00:13:16.722Z,9.90
2022-08-09T00:16:07.636Z,8.05
2022-08-09T00:19:03.030Z,8.48
2022-08-09T00:21:59.677Z,8.80
2022-08-09T00:24:49.818Z,9.15
2022-08-09T00:27:43.150Z,12.07
2022-08-09T00:30:33.143Z,9.18
2022-08-09T00:33:48.838Z,9.15
2022-08-09T00:36:33.827Z,8.50
2022-08-09T00:40:12.258Z,8.90
2022-08-09T00:44:15.931Z,8.30
2022-08-09T00:45:50.399Z,8.82
2022-08-09T00:48:47.558Z,8.57
2022-08-09T00:51:54.502Z,6.93
2022-08-09T00:54:45.614Z,6.85
2022-08-09T00:57:35.814Z,6.18
2022-08-09T01:00:26.877Z,5.80
2022-08-09T01:03:59.267Z,5.85
2022-08-09T01:07:14.053Z,6.72
2022-08-09T01:10:07.357Z,6.10
2022-08-09T01:13:09.242Z,6.28
2022-08-09T01:16:03.345Z,7.57
2022-08-09T01:19:04.227Z,6.07
2022-08-09T01:22:12.429Z,6.75
2022-08-09T01:25:22.269Z,8.82
2022-08-09T01:28:12.977Z,7.13
2022-08-09T01:31:06.987Z,7.13
2022-08-09T01:34:01.621Z,6.50
2022-08-09T01:36:54.857Z,7.03
2022-08-09T01:39:47.270Z,7.22
2022-08-09T01:42:38.965Z,5.20
2022-08-09T01:45:31.004Z,5.97
2022-08-09T01:48:24.184Z,4.03
2022-08-09T01:51:22.759Z,5.43
2022-08-09T01:54:13.811Z,4.43
2022-08-09T01:57:27.332Z,3.58
2022-08-09T02:00:35.845Z,4.03
2022-08-09T02:03:26.234Z,3.63
2022-08-09T02:06:19.501Z,3.80
2022-08-09T02:09:15.858Z,3.63
2022-08-09T02:12:09.766Z,3.97
2022-08-09T02:15:06.331Z,3.50
2022-08-09T02:18:10.007Z,3.30
2022-08-09T02:21:06.261Z,3.63
2022-08-09T02:23:58.448Z,3.67
2022-08-09T02:26:58.612Z,3.25
2022-08-09T02:29:52.223Z,3.20
2022-08-09T02:32:47.204Z,3.80
2022-08-09T02:36:01.986Z,4.78
2022-08-09T02:38:57.362Z,4.93
2022-08-09T02:41:52.167Z,5.03
2022-08-09T02:44:46.894Z,5.97
2022-08-09T02:47:58.102Z,5.75
2022-08-09T02:50:56.399Z,6.80
2022-08-09T02:54:01.124Z,7.07
2022-08-09T02:56:56.903Z,5.88
2022-08-09T03:00:20.469Z,10.43
2022-08-09T03:03:02.198Z,4.57
2022-08-09T03:05:55.604Z,4.20
2022-08-09T03:08:49.296Z,3.88
2022-08-09T03:12:05.856Z,5.40
2022-08-09T03:14:51.916Z,3.65
2022-08-09T03:17:42.520Z,3.08
2022-08-09T03:20:33.445Z,2.83
2022-08-09T03:23:24.629Z,2.97
2022-08-09T03:26:19.048Z,3.67
2022-08-09T03:29:13.519Z,3.15
2022-08-09T03:32:13.519Z,3.80
2022-08-09T03:35:14.767Z,3.45
2022-08-09T03:38:28.552Z,3.72
2022-08-09T03:41:19.564Z,3.22
2022-08-09T03:44:20.823Z,3.00
2022-08-09T03:47:17.782Z,5.90
2022-08-09T03:50:10.539Z,3.58
2022-08-09T03:53:05.203Z,3.38
2022-08-09T03:55:56.122Z,2.45
2022-08-09T03:58:47.061Z,2.70
2022-08-09T04:01:42.051Z,13.52
2022-08-09T04:04:38.886Z,2.47
2022-08-09T04:07:33.920Z,3.30
2022-08-09T04:10:40.637Z,2.20
2022-08-09T04:14:37.762Z,2.80
2022-08-09T04:16:40.751Z,3.00
2022-08-09T04:19:50.803Z,2.35
2022-08-09T04:22:44.305Z,3.38
2022-08-09T04:25:36.025Z,1.90
2022-08-09T04:28:34.240Z,1.90
2022-08-09T04:31:37.376Z,2.40
2022-08-09T04:34:34.965Z,2.53
2022-08-09T04:37:45.102Z,2.35
2022-08-09T04:40:56.447Z,1.98
2022-08-09T04:44:05.620Z,1.88
2022-08-09T04:46:59.121Z,1.85
2022-08-09T04:49:55.081Z,4.13
2022-08-09T04:52:45.735Z,2.45
2022-08-09T04:55:39.049Z,2.53
2022-08-09T04:58:46.346Z,2.80
2022-08-09T05:01:40.410Z,2.15
2022-08-09T05:04:30.818Z,2.80
2022-08-09T05:07:21.578Z,2.70
2022-08-09T05:10:16.924Z,2.53
2022-08-09T05:13:07.349Z,2.30
2022-08-09T05:16:04.618Z,2.25
2022-08-09T05:18:59.328Z,2.30
2022-08-09T05:21:55.832Z,3.00
2022-08-09T05:24:47.669Z,2.25
2022-08-09T05:27:45.412Z,2.33
2022-08-09T05:30:37.543Z,3.72
2022-08-09T05:33:33.181Z,4.82
2022-08-09T05:36:28.834Z,5.97
2022-08-09T05:39:21.763Z,6.20
2022-08-09T05:42:21.852Z,5.45
2022-08-09T05:45:18.376Z,4.75
2022-08-09T05:48:09.743Z,4.13
2022-08-09T05:51:29.783Z,2.97
2022-08-09T05:54:11.318Z,4.07
2022-08-09T05:57:02.181Z,2.70
2022-08-09T05:59:55.927Z,4.13
2022-08-09T06:02:46.978Z,3.70
2022-08-09T06:05:57.423Z,2.75
2022-08-09T06:08:52.574Z,2.88
2022-08-09T06:11:57.604Z,3.00
2022-08-09T06:14:48.131Z,2.60
2022-08-09T06:17:39.929Z,3.42
2022-08-09T06:20:31.018Z,3.70
2022-08-09T06:23:24.289Z,3.33
2022-08-09T06:26:34.649Z,3.05
2022-08-09T06:29:26.854Z,2.63
2022-08-09T06:32:53.600Z,2.22
2022-08-09T06:35:55.652Z,3.45
2022-08-09T06:38:37.713Z,3.55
2022-08-09T06:42:08.170Z,3.63
2022-08-09T06:44:41.378Z,3.40
2022-08-09T06:47:39.513Z,4.50
2022-08-09T06:50:32.268Z,3.50
2022-08-09T06:53:22.945Z,4.60
2022-08-09T06:56:14.412Z,3.88
2022-08-09T07:00:51.879Z,3.00
2022-08-09T07:02:15.122Z,3.30
2022-08-09T07:05:06.934Z,3.58
2022-08-09T07:08:00.670Z,3.60
2022-08-09T07:10:52.617Z,2.78
2022-08-09T07:13:45.130Z,2.80
2022-08-09T07:16:57.705Z,2.50
2022-08-09T07:19:50.817Z,2.30
2022-08-09T07:22:52.434Z,2.50
2022-08-09T07:25:44.245Z,3.90
2022-08-09T07:28:34.672Z,2.83
2022-08-09T07:31:26.350Z,3.53
2022-08-09T07:34:21.195Z,2.97
2022-08-09T07:37:16.655Z,2.95
2022-08-09T07:40:08.057Z,2.67
2022-08-09T07:43:02.227Z,3.50
2022-08-09T07:45:52.440Z,7.85
2022-08-09T07:48:42.444Z,4.30
2022-08-09T07:52:04.683Z,3.45
2022-08-09T07:54:45.058Z,4.35
2022-08-09T07:57:47.277Z,3.92
2022-08-09T08:00:55.513Z,4.70
2022-08-09T08:03:48.170Z,4.28
2022-08-09T08:06:55.524Z,4.32
2022-08-09T08:09:53.338Z,5.50
2022-08-09T08:12:46.561Z,4.60
2022-08-09T08:15:37.766Z,5.53
2022-08-09T08:18:29.318Z,6.13
2022-08-09T08:21:21.797Z,5.97
2022-08-09T08:24:16.795Z,6.07
2022-08-09T08:27:17.207Z,5.63
2022-08-09T08:30:11.306Z,5.88
2022-08-09T08:33:01.456Z,4.90
2022-08-09T08:36:00.769Z,5.53
2022-08-09T08:38:57.406Z,5.95
2022-08-09T08:41:51.548Z,6.30
2022-08-09T08:44:43.639Z,6.55
2022-08-09T08:47:38.550Z,7.22
2022-08-09T08:50:33.230Z,8.27
2022-08-09T08:53:25.054Z,7.30
2022-08-09T08:56:28.004Z,7.53
2022-08-09T08:59:20.462Z,6.90
2022-08-09T09:02:14.768Z,6.82
2022-08-09T09:05:57.891Z,8.23
2022-08-09T09:08:42.142Z,6.93
2022-08-09T09:11:33.924Z,9.15
2022-08-09T09:14:29.437Z,8.90
2022-08-09T09:17:21.350Z,8.80
2022-08-09T09:20:15.488Z,7.97
2022-08-09T09:23:06.239Z,6.97
2022-08-09T09:26:04.631Z,8.82
2022-08-09T09:29:10.963Z,8.02
2022-08-09T09:32:15.711Z,10.52
2022-08-09T09:35:09.642Z,8.48
2022-08-09T09:38:01.130Z,10.13
2022-08-09T09:40:51.296Z,8.73
2022-08-09T09:44:10.666Z,8.57
2022-08-09T09:46:52.756Z,7.53
2022-08-09T09:50:06.967Z,7.75
2022-08-09T09:52:57.788Z,6.93
2022-08-09T09:56:04.579Z,6.70
2022-08-09T09:58:55.162Z,7.53
2022-08-09T10:01:47.313Z,18.10
2022-08-09T10:04:38.017Z,13.30
2022-08-09T10:07:30.261Z,17.55
2022-08-09T10:10:32.123Z,12.27
2022-08-09T10:13:24.753Z,10.80
2022-08-09T10:16:56.722Z,13.00
2022-08-09T10:19:46.918Z,15.93
2022-08-09T10:22:45.799Z,23.63
2022-08-09T10:26:07.712Z,22.80
2022-08-09T10:28:48.675Z,24.48
2022-08-09T10:35:07.751Z,24.08
2022-08-09T10:38:05.202Z,33.10
2022-08-09T10:41:17.852Z,18.13
2022-08-09T10:44:08.459Z,39.90
2022-08-09T10:48:16.750Z,27.25
2022-08-09T10:51:29.642Z,57.08
2022-08-09T10:54:31.503Z,35.42
2022-08-09T10:57:24.980Z,57.03
2022-08-09T11:01:11.438Z,140.45
2022-08-09T11:04:20.080Z,232.98
2022-08-09T11:07:21.314Z,260.85
2022-08-09T11:10:11.810Z,214.88
2022-08-09T11:13:49.787Z,525.03
2022-08-09T11:16:40.836Z,315.77
2022-08-09T11:20:22.337Z,256.77
2022-08-09T11:23:14.993Z,753.47
2022-08-09T11:26:07.321Z,649.33
2022-08-09T11:28:57.304Z,184.52
2022-08-09T11:31:52.615Z,308.30
2022-08-09T11:34:51.528Z,301.02
2022-08-09T11:37:43.673Z,404.65
2022-08-09T11:40:39.650Z,434.35
2022-08-09T11:43:32.111Z,239.55
2022-08-09T11:46:33.289Z,284.52
2022-08-09T11:50:56.198Z,177.88
2022-08-09T11:53:58.813Z,120.57
2022-08-09T11:56:42.730Z,78.57
2022-08-09T11:59:38.995Z,48.72
2022-08-09T12:02:37.203Z,44.30
2022-08-09T12:05:37.930Z,38.72
2022-08-09T12:08:30.686Z,33.47
2022-08-09T12:11:27.035Z,33.17
2022-08-09T12:14:48.830Z,23.02
2022-08-09T12:17:41.679Z,22.27
2022-08-09T12:20:36.059Z,22.83
2022-08-09T12:23:56.501Z,20.98
2022-08-09T12:28:58.117Z,20.42
2022-08-09T12:30:37.048Z,16.77
2022-08-09T12:33:13.195Z,15.13
2022-08-09T12:36:27.767Z,12.85
2022-08-09T12:39:17.209Z,13.75
2022-08-09T12:42:09.410Z,13.13
2022-08-09T12:44:59.545Z,15.13
2022-08-09T12:47:51.968Z,15.13
2022-08-09T12:50:42.855Z,14.30
2022-08-09T12:53:41.262Z,16.38
2022-08-09T12:56:54.135Z,13.43
2022-08-09T13:00:03.492Z,12.82
2022-08-09T13:02:56.981Z,12.65
2022-08-09T13:06:15.996Z,15.73
2022-08-09T13:09:13.483Z,13.65
2022-08-09T13:12:06.938Z,12.00
2022-08-09T13:15:07.334Z,12.52
2022-08-09T13:18:09.566Z,13.75
2022-08-09T13:22:37.826Z,12.40
2022-08-09T13:24:53.081Z,11.20
2022-08-09T13:27:48.241Z,8.13
2022-08-09T13:30:51.116Z,7.18
2022-08-09T13:33:58.423Z,6.03
2022-08-09T13:36:49.446Z,5.03
2022-08-09T13:41:55.144Z,5.55
2022-08-09T13:42:51.876Z,4.20
2022-08-09T13:46:44.681Z,4.82
2022-08-09T13:48:51.801Z,4.00
2022-08-09T13:51:41.741Z,4.20
2022-08-09T13:54:59.111Z,3.67
2022-08-09T13:57:53.086Z,4.07
2022-08-09T14:00:52.585Z,4.47
2022-08-09T14:04:02.245Z,4.07
2022-08-09T14:07:00.404Z,4.57
2022-08-09T14:09:54.428Z,4.25
2022-08-09T14:12:45.258Z,4.00
2022-08-09T14:16:09.786Z,4.45
2022-08-09T14:18:49.258Z,4.47
2022-08-09T14:21:40.744Z,4.22
2022-08-09T14:24:32.379Z,3.90
2022-08-09T14:27:23.945Z,4.55
2022-08-09T14:30:36.877Z,4.60
2022-08-09T14:33:26.841Z,4.82
2022-08-09T14:36:20.605Z,5.00
2022-08-09T14:39:11.872Z,6.45
2022-08-09T14:42:01.788Z,6.10
2022-08-09T14:44:59.321Z,5.72
2022-08-09T14:47:57.349Z,6.18
2022-08-09T14:50:50.036Z,5.70
2022-08-09T14:53:46.785Z,5.65
2022-08-09T14:56:53.632Z,6.40
2022-08-09T14:59:48.793Z,5.72
2022-08-09T15:02:40.188Z,4.82
2022-08-09T15:05:31.295Z,4.22
2022-08-09T15:08:23.870Z,4.93
2022-08-09T15:11:14.432Z,4.32
2022-08-09T15:14:13.251Z,4.93
2022-08-09T15:17:04.961Z,5.43
2022-08-09T15:19:59.381Z,6.40
2022-08-09T15:22:59.850Z,6.60
2022-08-09T15:25:53.400Z,7.13
2022-08-09T15:28:45.438Z,6.60
2022-08-09T15:31:45.014Z,5.43
2022-08-09T15:34:35.698Z,5.38
2022-08-09T15:37:57.026Z,5.60
2022-08-09T15:40:47.911Z,5.13
2022-08-09T15:43:40.619Z,4.05
2022-08-09T15:46:34.962Z,4.35
2022-08-09T15:49:24.962Z,4.20
2022-08-09T15:52:18.066Z,3.95
2022-08-09T15:55:10.286Z,4.18
2022-08-09T15:58:01.782Z,3.30
2022-08-09T16:00:52.070Z,3.70
2022-08-09T16:03:41.951Z,3.13
2022-08-09T16:06:35.291Z,4.10
2022-08-09T16:09:51.048Z,4.13
2022-08-09T16:12:37.646Z,3.42
2022-08-09T16:16:12.231Z,3.60
2022-08-09T16:18:50.097Z,2.92
2022-08-09T16:21:48.568Z,3.63
2022-08-09T16:24:42.319Z,3.25
2022-08-09T16:27:32.791Z,3.70
2022-08-09T16:30:29.796Z,3.90
2022-08-09T16:33:26.475Z,3.58
2022-08-09T16:36:18.609Z,3.10
2022-08-09T16:39:09.135Z,2.85
2022-08-09T16:42:03.582Z,2.83
2022-08-09T16:44:54.701Z,3.05
2022-08-09T16:48:40.750Z,3.53
2022-08-09T16:50:59.537Z,3.85
2022-08-09T16:54:25.930Z,3.50
2022-08-09T16:57:06.079Z,3.60
2022-08-09T17:00:01.058Z,4.45
2022-08-09T17:02:52.048Z,5.15
2022-08-09T17:06:07.858Z,4.43
2022-08-09T17:09:02.907Z,4.82
2022-08-09T17:12:02.665Z,4.80
2022-08-09T17:14:57.263Z,3.83
2022-08-09T17:17:51.546Z,3.90
2022-08-09T17:20:53.190Z,4.45
2022-08-09T17:24:27.972Z,4.88
2022-08-09T17:26:53.364Z,5.80
2022-08-09T17:29:45.435Z,5.57
2022-08-09T17:32:38.358Z,4.85
2022-08-09T17:35:28.442Z,5.60
2022-08-09T17:38:33.922Z,6.13
2022-08-09T17:41:38.677Z,5.53
2022-08-09T17:44:38.641Z,5.53
2022-08-09T17:47:49.661Z,6.03
2022-08-09T17:50:48.576Z,5.43
2022-08-09T17:53:52.197Z,4.15
2022-08-09T17:56:44.078Z,5.00
2022-08-09T17:59:38.450Z,4.55
2022-08-09T18:02:33.514Z,4.00
2022-08-09T18:05:23.886Z,5.20
2022-08-09T18:08:28.742Z,5.40
2022-08-09T18:11:18.387Z,4.90
2022-08-09T18:14:14.912Z,3.65
2022-08-09T18:17:06.036Z,4.30
2022-08-09T18:20:54.793Z,4.07
2022-08-09T18:23:08.053Z,3.17
2022-08-09T18:26:17.921Z,2.83
2022-08-09T18:30:34.963Z,2.60
2022-08-09T18:32:19.113Z,2.95
2022-08-09T18:35:10.391Z,2.67
2022-08-09T18:37:59.651Z,2.90
2022-08-09T18:40:51.049Z,3.10
2022-08-09T18:43:53.121Z,3.20
2022-08-09T18:46:46.933Z,2.95
2022-08-09T18:49:47.934Z,2.83
2022-08-09T18:52:43.957Z,3.33
2022-08-09T18:55:55.977Z,3.15
2022-08-09T18:58:45.591Z,3.45
2022-08-09T19:01:43.580Z,3.30
2022-08-09T19:04:35.789Z,3.78
2022-08-09T19:07:25.333Z,2.85
2022-08-09T19:10:17.720Z,3.63
2022-08-09T19:13:23.130Z,3.20
2022-08-09T19:16:21.216Z,3.67
2022-08-09T19:19:25.047Z,3.97
2022-08-09T19:22:16.859Z,3.35
2022-08-09T19:25:41.896Z,3.65
2022-08-09T19:28:18.434Z,4.03
2022-08-09T19:31:08.345Z,5.22
2022-08-09T19:33:58.251Z,6.05
2022-08-09T19:36:51.537Z,5.85
2022-08-09T19:40:03.891Z,6.40
2022-08-09T19:42:51.467Z,6.22
2022-08-09T19:45:42.479Z,6.43
2022-08-09T19:49:01.801Z,7.22
2022-08-09T19:51:42.164Z,7.55
2022-08-09T19:54:45.218Z,7.30
2022-08-09T19:57:35.345Z,7.00
2022-08-09T20:00:25.142Z,7.65
2022-08-09T20:04:07.616Z,7.55
2022-08-09T20:06:31.372Z,7.80
2022-08-09T20:09:45.009Z,7.35
2022-08-09T20:12:37.407Z,7.68
2022-08-09T20:16:33.583Z,7.65
2022-08-09T20:18:52.018Z,8.70
2022-08-09T20:21:59.789Z,9.20
2022-08-09T20:24:53.265Z,9.75
2022-08-09T20:27:44.569Z,10.27
2022-08-09T20:30:34.637Z,9.23
2022-08-09T20:33:25.323Z,9.10
2022-08-09T20:36:15.639Z,10.52
2022-08-09T20:39:29.094Z,10.20
2022-08-09T20:42:20.548Z,10.20
2022-08-09T20:45:59.837Z,11.25
2022-08-09T20:48:31.056Z,10.95
2022-08-09T20:51:25.787Z,12.05
2022-08-09T20:54:17.091Z,11.00
2022-08-09T20:57:08.082Z,10.63
2022-08-09T21:00:30.805Z,10.85
2022-08-09T21:03:07.798Z,9.07
2022-08-09T21:05:59.881Z,10.18
2022-08-09T21:08:51.137Z,9.95
2022-08-09T21:14:50.862Z,9.73
2022-08-09T21:18:11.855Z,9.93
2022-08-09T21:20:55.965Z,10.05
2022-08-09T21:23:51.611Z,9.45
2022-08-09T21:26:41.357Z,10.95
2022-08-09T21:29:49.407Z,10.70
2022-08-09T21:32:40.288Z,10.82
2022-08-09T21:35:31.859Z,11.68
2022-08-09T21:38:30.990Z,12.13
2022-08-09T21:41:21.255Z,10.70
2022-08-09T21:44:34.694Z,11.50
2022-08-09T21:47:25.451Z,12.25
2022-08-09T21:50:22.234Z,12.70
2022-08-09T21:53:23.928Z,14.75
2022-08-09T21:56:33.799Z,13.05
2022-08-09T21:59:42.743Z,12.25
2022-08-09T22:02:36.140Z,12.38
2022-08-09T22:05:35.973Z,12.15
2022-08-09T22:08:29.941Z,12.45
2022-08-09T22:12:06.259Z,11.95
2022-08-09T22:14:29.263Z,12.38
2022-08-09T22:17:21.781Z,13.23
2022-08-09T22:20:11.889Z,13.45
2022-08-09T22:23:13.386Z,14.10
2022-08-09T22:26:05.757Z,14.02
2022-08-09T22:29:07.146Z,13.82
2022-08-09T22:31:58.111Z,15.57
2022-08-09T22:34:59.074Z,16.33
2022-08-09T22:38:06.570Z,17.02
2022-08-09T22:40:57.882Z,17.45
2022-08-09T22:44:01.922Z,17.17
2022-08-09T22:48:15.375Z,18.73
2022-08-09T22:50:03.818Z,19.08
2022-08-09T22:52:54.858Z,19.55
2022-08-09T22:56:31.005Z,18.75
2022-08-09T22:58:59.396Z,19.40
2022-08-09T23:01:49.903Z,19.00
2022-08-09T23:04:42.590Z,20.08
2022-08-09T23:08:21.709Z,18.38
2022-08-09T23:10:59.963Z,19.65
2022-08-09T23:13:55.113Z,19.00
2022-08-09T23:16:44.899Z,19.02
2022-08-09T23:20:06.974Z,17.25
2022-08-09T23:22:44.887Z,18.10
2022-08-09T23:25:37.328Z,17.05
2022-08-09T23:28:28.125Z,17.17
2022-08-09T23:31:17.776Z,16.80
2022-08-09T23:34:07.641Z,16.35
2022-08-09T23:36:57.581Z,17.23
2022-08-09T23:39:48.221Z,18.83
2022-08-09T23:42:37.939Z,18.55
2022-08-09T23:45:36.354Z,18.50
2022-08-09T23:48:28.267Z,18.70
2022-08-09T23:51:18.885Z,19.52
2022-08-09T23:54:09.290Z,18.13
2022-08-09T23:56:59.971Z,17.77
